createdAt,value
2022-08-08T00:00:56.089Z,67.00
2022-08-08T00:02:03.734Z,67.79
2022-08-08T00:03:32.312Z,67.18
2022-08-08T00:04:59.474Z,67.50
2022-08-08T00:06:12.845Z,68.28
2022-08-08T00:07:29.019Z,67.56
2022-08-08T00:08:53.203Z,67.65
2022-08-08T00:10:13.530Z,69.93
2022-08-08T00:11:47.049Z,68.00
2022-08-08T00:13:00.480Z,68.21
2022-08-08T00:14:17.719Z,68.67
2022-08-08T00:15:56.044Z,68.56
2022-08-08T00:17:02.496Z,69.19
2022-08-08T00:18:23.535Z,68.91
2022-08-08T00:19:35.336Z,68.63
2022-08-08T00:20:58.542Z,69.10
2022-08-08T00:22:32.357Z,68.30
2022-08-08T00:23:57.920Z,68.79
2022-08-08T00:25:08.485Z,69.44
2022-08-08T00:26:26.169Z,69.04
2022-08-08T00:27:32.902Z,70.99
2022-08-08T00:28:44.262Z,70.04
2022-08-08T00:30:18.319Z,68.97
2022-08-08T00:32:20.809Z,68.91
2022-08-08T00:32:53.279Z,69.46
2022-08-08T00:34:37.079Z,69.93
2022-08-08T00:36:03.366Z,70.00
2022-08-08T00:37:47.461Z,70.09
2022-08-08T00:41:07.177Z,70.54
2022-08-08T00:41:11.219Z,70.58
2022-08-08T00:42:08.996Z,70.02
2022-08-08T00:43:56.242Z,70.60
2022-08-08T00:45:32.174Z,70.78
2022-08-08T00:46:56.781Z,70.92
2022-08-08T00:48:33.893Z,70.43
2022-08-08T00:49:58.400Z,69.97
2022-08-08T00:51:42.227Z,70.56
2022-08-08T00:52:51.912Z,70.85
2022-08-08T00:54:13.401Z,72.15
2022-08-08T00:55:54.206Z,72.04
2022-08-08T00:57:38.900Z,70.93
2022-08-08T00:59:43.814Z,71.19
2022-08-08T01:01:12.566Z,71.53
2022-08-08T01:03:58.583Z,71.29
2022-08-08T01:04:20.067Z,71.12
2022-08-08T01:05:59.299Z,71.39
2022-08-08T01:07:56.599Z,72.11
2022-08-08T01:09:01.053Z,72.29
2022-08-08T01:10:34.360Z,71.62
2022-08-08T01:12:03.853Z,71.97
2022-08-08T01:13:43.459Z,72.13
2022-08-08T01:15:07.436Z,73.27
2022-08-08T01:16:28.056Z,73.13
2022-08-08T01:18:02.337Z,72.10
2022-08-08T01:19:25.510Z,72.32
2022-08-08T01:20:56.114Z,72.60
2022-08-08T01:22:34.909Z,72.44
2022-08-08T01:24:13.859Z,72.53
2022-08-08T01:25:40.401Z,73.24
2022-08-08T01:27:10.624Z,72.63
2022-08-08T01:28:43.310Z,71.55
2022-08-08T01:30:27.640Z,72.09
2022-08-08T01:32:17.366Z,71.32
2022-08-08T01:33:43.146Z,72.13
2022-08-08T01:35:33.195Z,73.04
2022-08-08T01:36:52.162Z,73.68
2022-08-08T01:38:13.018Z,72.48
2022-08-08T01:39:24.143Z,71.91
2022-08-08T01:40:41.529Z,72.22
2022-08-08T01:42:10.018Z,72.32
2022-08-08T01:43:46.547Z,72.45
2022-08-08T01:45:22.736Z,72.23
2022-08-08T01:46:38.851Z,71.80
2022-08-08T01:48:23.260Z,73.45
2022-08-08T01:50:10.127Z,73.62
2022-08-08T01:52:43.513Z,73.76
2022-08-08T01:55:16.481Z,73.50
2022-08-08T01:55:16.719Z,74.03
2022-08-08T01:56:34.395Z,74.31
2022-08-08T01:58:19.039Z,75.43
2022-08-08T02:00:01.823Z,74.92
2022-08-08T02:01:24.257Z,74.94
2022-08-08T02:02:56.974Z,75.14
2022-08-08T02:04:03.349Z,75.33
2022-08-08T02:05:56.618Z,76.58
2022-08-08T02:07:06.322Z,75.68
2022-08-08T02:08:59.443Z,76.17
2022-08-08T02:10:11.465Z,76.26
2022-08-08T02:12:00.062Z,76.48
2022-08-08T02:13:10.873Z,76.54
2022-08-08T02:14:59.634Z,77.23
2022-08-08T02:16:39.390Z,77.80
2022-08-08T02:17:50.464Z,77.16
2022-08-08T02:19:41.509Z,76.35
2022-08-08T02:21:25.693Z,76.82
2022-08-08T02:22:54.848Z,78.10
2022-08-08T02:24:23.654Z,77.77
2022-08-08T02:25:46.912Z,77.14
2022-08-08T02:26:57.996Z,78.64
2022-08-08T02:28:13.255Z,78.71
2022-08-08T02:29:26.205Z,78.21
2022-08-08T02:31:43.239Z,77.98
2022-08-08T02:32:47.114Z,78.21
2022-08-08T02:34:09.444Z,77.97
2022-08-08T02:35:28.287Z,77.88
2022-08-08T02:36:45.790Z,78.61
2022-08-08T02:38:09.060Z,78.00
2022-08-08T02:39:41.026Z,78.21
2022-08-08T02:41:03.405Z,78.52
2022-08-08T02:42:41.709Z,77.95
2022-08-08T02:44:35.201Z,77.64
2022-08-08T02:45:57.449Z,78.42
2022-08-08T02:47:17.841Z,77.76
2022-08-08T02:48:26.109Z,78.26
2022-08-08T02:49:48.241Z,78.26
2022-08-08T02:51:46.507Z,77.96
2022-08-08T02:53:07.768Z,78.02
2022-08-08T02:54:52.644Z,78.53
2022-08-08T02:56:19.999Z,78.49
2022-08-08T02:57:50.702Z,78.39
2022-08-08T02:59:37.304Z,79.57
2022-08-08T03:00:55.425Z,79.99
2022-08-08T03:02:10.023Z,79.77
2022-08-08T03:05:03.122Z,80.50
2022-08-08T03:05:26.708Z,81.08
2022-08-08T03:07:06.978Z,82.52
2022-08-08T03:08:27.741Z,80.36
2022-08-08T03:09:43.547Z,80.71
2022-08-08T03:11:37.731Z,80.61
2022-08-08T03:13:07.330Z,79.82
2022-08-08T03:15:58.739Z,79.98
2022-08-08T03:16:36.024Z,79.27
2022-08-08T03:18:06.538Z,79.64
2022-08-08T03:19:34.268Z,79.77
2022-08-08T03:20:51.903Z,79.70
2022-08-08T03:21:58.182Z,79.08
2022-08-08T03:23:04.625Z,79.79
2022-08-08T03:24:06.782Z,79.59
2022-08-08T03:25:17.803Z,80.34
2022-08-08T03:26:30.767Z,80.14
2022-08-08T03:27:35.876Z,80.10
2022-08-08T03:28:51.165Z,79.84
2022-08-08T03:30:04.119Z,80.06
2022-08-08T03:31:27.917Z,80.39
2022-08-08T03:33:03.854Z,81.07
2022-08-08T03:34:14.137Z,81.04
2022-08-08T03:35:16.404Z,79.94
2022-08-08T03:36:20.031Z,80.36
2022-08-08T03:38:53.504Z,80.54
2022-08-08T03:39:07.549Z,80.85
2022-08-08T03:40:30.607Z,82.07
2022-08-08T03:42:27.198Z,82.81
2022-08-08T03:42:56.803Z,82.18
2022-08-08T03:43:59.913Z,82.87
2022-08-08T03:45:02.232Z,82.48
2022-08-08T03:46:25.305Z,82.79
2022-08-08T03:47:45.215Z,83.27
2022-08-08T03:49:30.150Z,82.30
2022-08-08T03:50:26.142Z,82.25
2022-08-08T03:51:50.990Z,82.72
2022-08-08T03:52:53.056Z,82.83
2022-08-08T03:53:56.832Z,83.43
2022-08-08T03:55:10.334Z,82.89
2022-08-08T03:56:32.228Z,82.23
2022-08-08T03:58:32.863Z,81.98
2022-08-08T03:58:56.973Z,83.29
2022-08-08T04:00:07.930Z,81.98
2022-08-08T04:01:24.743Z,82.17
2022-08-08T04:02:33.330Z,83.49
2022-08-08T04:03:56.966Z,83.89
2022-08-08T04:05:10.721Z,86.22
2022-08-08T04:06:12.666Z,84.80
2022-08-08T04:07:16.423Z,84.58
2022-08-08T04:08:32.917Z,84.40
2022-08-08T04:10:00.105Z,84.92
2022-08-08T04:10:59.941Z,84.19
2022-08-08T04:12:02.192Z,84.20
2022-08-08T04:13:17.383Z,83.63
2022-08-08T04:14:34.895Z,83.76
2022-08-08T04:15:38.648Z,83.62
2022-08-08T04:16:41.568Z,83.20
2022-08-08T04:17:59.138Z,82.73
2022-08-08T04:19:01.694Z,82.90
2022-08-08T04:20:04.878Z,81.44
2022-08-08T04:21:07.061Z,81.92
2022-08-08T04:22:10.383Z,82.08
2022-08-08T04:23:15.575Z,82.60
2022-08-08T04:24:28.265Z,82.72
2022-08-08T04:25:33.033Z,83.31
2022-08-08T04:26:57.375Z,83.35
2022-08-08T04:28:34.950Z,82.94
2022-08-08T04:29:22.171Z,82.77
2022-08-08T04:30:24.917Z,82.71
2022-08-08T04:31:57.223Z,82.86
2022-08-08T04:32:50.573Z,83.06
2022-08-08T04:33:52.750Z,83.47
2022-08-08T04:34:58.236Z,82.74
2022-08-08T04:36:00.357Z,81.94
2022-08-08T04:37:03.953Z,82.35
2022-08-08T04:38:06.332Z,82.36
2022-08-08T04:40:04.318Z,82.89
2022-08-08T04:40:33.023Z,82.74
2022-08-08T04:41:36.919Z,83.04
2022-08-08T04:42:56.273Z,83.70
2022-08-08T04:43:59.296Z,83.73
2022-08-08T04:45:01.132Z,83.72
2022-08-08T04:46:02.775Z,83.79
2022-08-08T04:47:05.560Z,84.25
2022-08-08T04:48:15.045Z,83.92
2022-08-08T04:49:16.978Z,82.51
2022-08-08T04:50:25.319Z,83.67
2022-08-08T04:51:55.113Z,83.48
2022-08-08T04:53:00.710Z,83.06
2022-08-08T04:54:40.110Z,83.36
2022-08-08T04:55:37.563Z,84.15
2022-08-08T04:56:49.685Z,82.99
2022-08-08T04:57:51.349Z,82.28
2022-08-08T04:58:53.390Z,82.35
2022-08-08T04:59:55.635Z,83.54
2022-08-08T05:01:08.978Z,82.84
2022-08-08T05:02:13.590Z,82.21
2022-08-08T05:03:19.139Z,82.17
2022-08-08T05:04:37.132Z,83.60
2022-08-08T05:05:44.808Z,83.36
2022-08-08T05:06:50.591Z,82.19
2022-08-08T05:07:54.575Z,81.81
2022-08-08T05:09:02.910Z,81.43
2022-08-08T05:10:07.921Z,81.18
2022-08-08T05:11:22.547Z,80.50
2022-08-08T05:12:36.669Z,79.89
2022-08-08T05:13:58.126Z,79.87
2022-08-08T05:15:05.291Z,79.66
2022-08-08T05:16:48.515Z,81.48
2022-08-08T05:17:53.914Z,80.59
2022-08-08T05:18:51.276Z,79.51
2022-08-08T05:20:10.795Z,79.49
2022-08-08T05:21:15.144Z,79.45
2022-08-08T05:22:21.714Z,78.98
2022-08-08T05:23:24.101Z,80.26
2022-08-08T05:24:26.696Z,79.51
2022-08-08T05:25:28.406Z,79.58
2022-08-08T05:26:46.291Z,79.32
2022-08-08T05:27:50.438Z,80.26
2022-08-08T05:29:04.834Z,78.98
2022-08-08T05:30:11.077Z,77.20
2022-08-08T05:32:02.324Z,77.60
2022-08-08T05:32:36.578Z,77.13
2022-08-08T05:33:39.414Z,76.59
2022-08-08T05:34:53.409Z,76.36
2022-08-08T05:36:00.981Z,74.89
2022-08-08T05:37:07.607Z,75.28
2022-08-08T05:38:30.222Z,75.02
2022-08-08T05:39:34.958Z,74.15
2022-08-08T05:40:41.812Z,73.76
2022-08-08T05:41:54.721Z,73.48
2022-08-08T05:43:38.643Z,74.03
2022-08-08T05:44:31.834Z,73.64
2022-08-08T05:45:42.930Z,73.27
2022-08-08T05:47:03.073Z,72.79
2022-08-08T05:48:08.665Z,72.32
2022-08-08T05:49:11.678Z,71.92
2022-08-08T05:50:13.452Z,71.44
2022-08-08T05:51:18.327Z,71.13
2022-08-08T05:52:20.536Z,69.79
2022-08-08T05:54:25.911Z,68.76
2022-08-08T05:55:03.179Z,68.81
2022-08-08T05:56:14.641Z,68.74
2022-08-08T05:57:59.573Z,69.18
2022-08-08T05:58:54.055Z,67.97
2022-08-08T06:00:25.170Z,67.39
2022-08-08T06:01:56.318Z,65.99
2022-08-08T06:03:08.174Z,65.40
2022-08-08T06:04:14.044Z,64.18
2022-08-08T06:05:35.004Z,63.47
2022-08-08T06:06:42.432Z,63.34
2022-08-08T06:07:50.934Z,62.71
2022-08-08T06:09:00.390Z,64.37
2022-08-08T06:10:24.703Z,63.44
2022-08-08T06:11:30.674Z,62.33
2022-08-08T06:12:33.996Z,61.90
2022-08-08T06:13:47.495Z,62.41
2022-08-08T06:14:49.650Z,62.53
2022-08-08T06:15:54.903Z,61.68
2022-08-08T06:17:01.001Z,61.04
2022-08-08T06:18:20.612Z,60.06
2022-08-08T06:19:25.928Z,59.15
2022-08-08T06:20:29.791Z,58.96
2022-08-08T06:21:33.232Z,58.79
2022-08-08T06:22:50.956Z,58.60
2022-08-08T06:24:03.356Z,58.40
2022-08-08T06:25:07.740Z,57.41
2022-08-08T06:26:43.941Z,56.93
2022-08-08T06:27:55.181Z,56.98
2022-08-08T06:29:26.261Z,54.19
2022-08-08T06:30:30.370Z,54.45
2022-08-08T06:32:09.514Z,54.44
2022-08-08T06:33:01.362Z,52.98
2022-08-08T06:34:25.897Z,53.60
2022-08-08T06:36:07.522Z,54.92
2022-08-08T06:36:55.493Z,52.36
2022-08-08T06:38:02.108Z,51.91
2022-08-08T06:39:07.008Z,51.29
2022-08-08T06:40:16.389Z,51.12
2022-08-08T06:41:20.064Z,49.86
2022-08-08T06:42:24.116Z,50.22
2022-08-08T06:43:36.025Z,49.68
2022-08-08T06:44:44.460Z,49.36
2022-08-08T06:45:48.261Z,49.04
2022-08-08T06:46:50.142Z,47.93
2022-08-08T06:48:01.175Z,46.89
2022-08-08T06:49:04.483Z,46.42
2022-08-08T06:50:08.628Z,46.70
2022-08-08T06:51:16.049Z,45.91
2022-08-08T06:52:18.267Z,46.64
2022-08-08T06:53:21.034Z,46.04
2022-08-08T06:54:23.567Z,44.84
2022-08-08T06:55:27.505Z,43.13
2022-08-08T06:56:31.892Z,43.19
2022-08-08T06:57:54.714Z,43.04
2022-08-08T06:58:57.265Z,43.73
2022-08-08T07:00:10.588Z,42.34
2022-08-08T07:02:17.025Z,42.45
2022-08-08T07:02:46.000Z,41.92
2022-08-08T07:04:36.881Z,39.44
2022-08-08T07:05:29.846Z,38.91
2022-08-08T07:06:33.847Z,38.49
2022-08-08T07:07:57.228Z,37.32
2022-08-08T07:09:08.118Z,37.12
2022-08-08T07:10:21.168Z,35.94
2022-08-08T07:11:28.622Z,35.49
2022-08-08T07:12:48.027Z,34.59
2022-08-08T07:14:00.932Z,33.16
2022-08-08T07:15:15.486Z,33.75
2022-08-08T07:17:03.130Z,30.81
2022-08-08T07:18:36.217Z,29.99
2022-08-08T07:19:51.404Z,30.35
2022-08-08T07:21:05.229Z,30.26
2022-08-08T07:22:32.872Z,30.36
2022-08-08T07:23:57.650Z,30.70
2022-08-08T07:25:03.977Z,31.46
2022-08-08T07:26:09.293Z,29.74
2022-08-08T07:27:16.406Z,29.73
2022-08-08T07:28:24.194Z,28.41
2022-08-08T07:29:59.835Z,28.40
2022-08-08T07:30:59.031Z,29.06
2022-08-08T07:32:01.862Z,29.49
2022-08-08T07:33:04.776Z,28.86
2022-08-08T07:34:08.764Z,29.10
2022-08-08T07:35:12.069Z,29.51
2022-08-08T07:36:16.937Z,29.46
2022-08-08T07:37:23.243Z,28.88
2022-08-08T07:38:25.798Z,28.53
2022-08-08T07:39:45.809Z,27.48
2022-08-08T07:40:59.129Z,28.44
2022-08-08T07:42:12.562Z,29.07
2022-08-08T07:43:15.650Z,28.94
2022-08-08T07:44:37.457Z,28.93
2022-08-08T07:46:04.956Z,28.91
2022-08-08T07:47:05.210Z,28.18
2022-08-08T07:48:06.950Z,28.53
2022-08-08T07:49:13.582Z,28.45
2022-08-08T07:50:16.579Z,27.20
2022-08-08T07:51:45.116Z,27.75
2022-08-08T07:52:51.836Z,28.07
2022-08-08T07:54:08.922Z,28.01
2022-08-08T07:55:19.118Z,28.03
2022-08-08T07:56:36.864Z,27.73
2022-08-08T07:58:01.924Z,27.05
2022-08-08T07:59:11.644Z,27.32
2022-08-08T08:00:17.348Z,27.35
2022-08-08T08:01:27.038Z,27.18
2022-08-08T08:03:13.869Z,27.68
2022-08-08T08:04:29.267Z,28.38
2022-08-08T08:05:40.180Z,28.60
2022-08-08T08:06:43.715Z,29.46
2022-08-08T08:07:56.797Z,28.91
2022-08-08T08:09:19.513Z,28.54
2022-08-08T08:10:30.732Z,27.95
2022-08-08T08:11:51.395Z,28.63
2022-08-08T08:13:20.491Z,28.42
2022-08-08T08:14:50.972Z,27.81
2022-08-08T08:16:00.728Z,28.58
2022-08-08T08:17:02.685Z,28.46
2022-08-08T08:18:06.510Z,29.18
2022-08-08T08:19:18.034Z,27.32
2022-08-08T08:20:29.900Z,27.61
2022-08-08T08:21:57.302Z,27.59
2022-08-08T08:23:00.490Z,27.45
2022-08-08T08:24:03.058Z,27.49
2022-08-08T08:25:08.050Z,26.31
2022-08-08T08:26:11.275Z,27.60
2022-08-08T08:27:12.992Z,27.47
2022-08-08T08:28:21.420Z,27.63
2022-08-08T08:29:28.545Z,26.67
2022-08-08T08:30:30.306Z,27.17
2022-08-08T08:31:41.491Z,27.16
2022-08-08T08:32:51.571Z,27.09
2022-08-08T08:33:53.993Z,27.82
2022-08-08T08:34:55.631Z,26.92
2022-08-08T08:36:20.499Z,28.27
2022-08-08T08:37:30.593Z,28.36
2022-08-08T08:38:32.668Z,27.30
2022-08-08T08:40:00.038Z,27.26
2022-08-08T08:41:01.200Z,27.00
2022-08-08T08:42:07.837Z,26.71
2022-08-08T08:43:16.758Z,25.98
2022-08-08T08:44:19.497Z,25.51
2022-08-08T08:45:23.229Z,25.72
2022-08-08T08:46:27.383Z,25.61
2022-08-08T08:47:33.735Z,25.05
2022-08-08T08:48:49.420Z,25.43
2022-08-08T08:49:51.452Z,26.76
2022-08-08T08:50:54.512Z,26.85
2022-08-08T08:52:02.089Z,27.16
2022-08-08T08:53:28.305Z,26.04
2022-08-08T08:54:34.592Z,25.18
2022-08-08T08:55:39.453Z,25.17
2022-08-08T08:56:41.762Z,25.14
2022-08-08T08:57:51.415Z,26.37
2022-08-08T08:58:55.948Z,25.67
2022-08-08T09:00:05.557Z,26.86
2022-08-08T09:01:15.955Z,27.07
2022-08-08T09:02:21.991Z,26.36
2022-08-08T09:03:45.593Z,27.33
2022-08-08T09:04:50.234Z,27.58
2022-08-08T09:05:56.252Z,27.97
2022-08-08T09:06:59.361Z,25.90
2022-08-08T09:08:18.471Z,26.18
2022-08-08T09:09:40.201Z,26.33
2022-08-08T09:10:50.933Z,25.36
2022-08-08T09:12:06.185Z,26.47
2022-08-08T09:13:10.509Z,27.51
2022-08-08T09:14:14.454Z,28.59
2022-08-08T09:15:37.578Z,27.85
2022-08-08T09:16:38.898Z,26.61
2022-08-08T09:17:55.728Z,27.11
2022-08-08T09:18:58.166Z,28.68
2022-08-08T09:21:56.137Z,27.48
2022-08-08T09:22:01.007Z,28.19
2022-08-08T09:22:48.019Z,27.59
2022-08-08T09:23:50.038Z,26.53
2022-08-08T09:24:54.133Z,27.40
2022-08-08T09:26:05.841Z,26.31
2022-08-08T09:27:09.236Z,26.86
2022-08-08T09:28:37.698Z,28.00
2022-08-08T09:30:09.862Z,27.25
2022-08-08T09:31:16.272Z,29.94
2022-08-08T09:32:37.223Z,29.52
2022-08-08T09:34:15.231Z,31.09
2022-08-08T09:35:15.878Z,31.44
2022-08-08T09:36:22.672Z,32.39
2022-08-08T09:37:58.206Z,29.57
2022-08-08T09:38:56.241Z,28.12
2022-08-08T09:40:11.396Z,27.83
2022-08-08T09:41:18.085Z,25.97
2022-08-08T09:42:25.979Z,26.84
2022-08-08T09:43:40.623Z,26.64
2022-08-08T09:44:58.688Z,26.12
2022-08-08T09:46:11.282Z,26.38
2022-08-08T09:48:02.096Z,25.13
2022-08-08T09:48:50.211Z,24.86
2022-08-08T09:49:52.055Z,23.11
2022-08-08T09:50:57.006Z,23.00
2022-08-08T09:52:06.698Z,22.58
2022-08-08T09:53:31.819Z,22.98
2022-08-08T09:54:45.110Z,23.48
2022-08-08T09:56:03.057Z,23.62
2022-08-08T09:57:16.580Z,23.57
2022-08-08T09:58:27.664Z,24.64
2022-08-08T10:00:02.428Z,23.76
2022-08-08T10:01:15.565Z,23.56
2022-08-08T10:02:36.417Z,23.39
2022-08-08T10:03:40.384Z,24.76
2022-08-08T10:04:47.881Z,24.09
2022-08-08T10:05:50.179Z,25.35
2022-08-08T10:06:53.912Z,24.12
2022-08-08T10:08:00.099Z,25.07
2022-08-08T10:09:02.945Z,24.87
2022-08-08T10:10:07.005Z,25.28
2022-08-08T10:11:12.001Z,25.90
2022-08-08T10:12:54.218Z,25.46
2022-08-08T10:14:06.129Z,24.87
2022-08-08T10:15:18.102Z,24.11
2022-08-08T10:16:21.632Z,22.98
2022-08-08T10:18:06.233Z,23.16
2022-08-08T10:19:03.447Z,21.89
2022-08-08T10:20:05.575Z,22.25
2022-08-08T10:21:23.004Z,21.22
2022-08-08T10:22:30.014Z,21.99
2022-08-08T10:23:42.066Z,21.79
2022-08-08T10:24:48.691Z,21.50
2022-08-08T10:25:56.948Z,23.32
2022-08-08T10:27:04.773Z,23.82
2022-08-08T10:28:07.182Z,23.28
2022-08-08T10:29:57.053Z,23.92
2022-08-08T10:31:46.474Z,24.14
2022-08-08T10:32:51.287Z,23.01
2022-08-08T10:34:19.981Z,22.77
2022-08-08T10:36:06.555Z,23.76
2022-08-08T10:36:41.698Z,23.80
2022-08-08T10:37:53.784Z,23.67
2022-08-08T10:38:58.361Z,22.45
2022-08-08T10:40:06.763Z,24.62
2022-08-08T10:41:17.237Z,24.10
2022-08-08T10:42:27.376Z,23.93
2022-08-08T10:43:43.110Z,23.47
2022-08-08T10:44:45.760Z,23.71
2022-08-08T10:45:54.996Z,22.66
2022-08-08T10:47:08.042Z,23.70
2022-08-08T10:48:12.533Z,22.71
2022-08-08T10:50:00.695Z,23.28
2022-08-08T10:50:42.600Z,23.53
2022-08-08T10:51:51.055Z,21.84
2022-08-08T10:53:01.540Z,21.81
2022-08-08T10:54:03.448Z,22.13
2022-08-08T10:55:07.024Z,22.73
2022-08-08T10:56:10.429Z,23.42
2022-08-08T10:57:45.124Z,22.59
2022-08-08T10:59:00.090Z,22.63
2022-08-08T11:00:01.791Z,22.63
2022-08-08T11:01:12.587Z,23.87
2022-08-08T11:02:15.084Z,22.05
2022-08-08T11:03:18.731Z,22.60
2022-08-08T11:04:53.179Z,22.50
2022-08-08T11:06:00.657Z,22.92
2022-08-08T11:07:02.718Z,22.81
2022-08-08T11:08:30.639Z,22.99
2022-08-08T11:09:26.420Z,22.45
2022-08-08T11:10:34.252Z,23.96
2022-08-08T11:12:05.477Z,23.13
2022-08-08T11:14:29.958Z,22.48
2022-08-08T11:15:31.648Z,22.54
2022-08-08T11:16:35.437Z,20.68
2022-08-08T11:18:00.363Z,21.45
2022-08-08T11:19:02.276Z,19.98
2022-08-08T11:20:10.953Z,20.40
2022-08-08T11:21:19.498Z,21.10
2022-08-08T11:22:30.015Z,20.35
2022-08-08T11:23:36.114Z,20.69
2022-08-08T11:24:38.461Z,19.92
2022-08-08T11:25:53.315Z,20.34
2022-08-08T11:27:10.336Z,21.06
2022-08-08T11:28:30.439Z,21.00
2022-08-08T11:29:50.934Z,21.12
2022-08-08T11:31:03.911Z,21.71
2022-08-08T11:32:07.749Z,21.63
2022-08-08T11:33:12.377Z,20.95
2022-08-08T11:34:25.694Z,22.38
2022-08-08T11:35:42.706Z,20.60
2022-08-08T11:36:45.975Z,20.72
2022-08-08T11:38:35.632Z,20.68
2022-08-08T11:39:20.040Z,21.14
2022-08-08T11:40:25.982Z,21.14
2022-08-08T11:41:33.569Z,19.80
2022-08-08T11:42:37.228Z,21.18
2022-08-08T11:43:42.225Z,20.75
2022-08-08T11:44:45.926Z,19.21
2022-08-08T11:46:09.753Z,20.53
2022-08-08T11:47:12.999Z,20.72
2022-08-08T11:48:20.814Z,20.03
2022-08-08T11:49:26.052Z,20.52
2022-08-08T11:50:30.620Z,20.41
2022-08-08T11:51:39.804Z,19.85
2022-08-08T11:52:47.210Z,19.26
2022-08-08T11:53:55.093Z,19.88
2022-08-08T11:55:00.484Z,19.98
2022-08-08T11:56:02.824Z,18.93
2022-08-08T11:57:14.196Z,20.58
2022-08-08T11:58:19.476Z,19.28
2022-08-08T12:00:00.650Z,20.55
2022-08-08T12:00:56.379Z,20.37
2022-08-08T12:02:31.230Z,21.02
2022-08-08T12:03:36.351Z,20.98
2022-08-08T12:04:39.057Z,21.33
2022-08-08T12:05:41.878Z,21.08
2022-08-08T12:06:44.893Z,21.21
2022-08-08T12:07:52.834Z,21.01
2022-08-08T12:09:05.976Z,21.62
2022-08-08T12:10:15.136Z,21.51
2022-08-08T12:11:26.887Z,20.74
2022-08-08T12:12:35.464Z,21.50
2022-08-08T12:14:02.742Z,20.79
2022-08-08T12:15:03.694Z,20.97
2022-08-08T12:16:16.327Z,20.69
2022-08-08T12:17:17.925Z,19.81
2022-08-08T12:18:27.597Z,21.03
2022-08-08T12:19:31.513Z,20.37
2022-08-08T12:21:00.293Z,20.43
2022-08-08T12:22:09.288Z,20.62
2022-08-08T12:23:30.636Z,19.96
2022-08-08T12:24:54.182Z,20.03
2022-08-08T12:26:17.085Z,20.97
2022-08-08T12:27:45.488Z,21.69
2022-08-08T12:28:57.142Z,21.45
2022-08-08T12:30:02.220Z,22.20
2022-08-08T12:31:08.667Z,21.64
2022-08-08T12:32:17.332Z,21.31
2022-08-08T12:33:37.524Z,20.64
2022-08-08T12:34:50.486Z,21.27
2022-08-08T12:35:54.567Z,20.70
2022-08-08T12:37:05.265Z,20.41
2022-08-08T12:38:17.878Z,20.31
2022-08-08T12:39:58.186Z,20.36
2022-08-08T12:40:56.764Z,21.43
2022-08-08T12:42:01.936Z,20.20
2022-08-08T12:43:06.796Z,20.35
2022-08-08T12:44:14.594Z,20.23
2022-08-08T12:45:59.275Z,21.28
2022-08-08T12:47:08.212Z,19.93
2022-08-08T12:48:37.310Z,20.10
2022-08-08T12:49:45.264Z,20.34
2022-08-08T12:50:49.980Z,20.22
2022-08-08T12:51:58.407Z,19.83
2022-08-08T12:53:02.292Z,18.72
2022-08-08T12:54:24.206Z,19.67
2022-08-08T12:55:29.235Z,20.35
2022-08-08T12:56:49.864Z,20.67
2022-08-08T12:57:56.895Z,20.67
2022-08-08T12:58:59.256Z,20.47
2022-08-08T13:00:04.380Z,21.24
2022-08-08T13:01:11.131Z,20.98
2022-08-08T13:02:29.284Z,20.07
2022-08-08T13:03:34.169Z,20.22
2022-08-08T13:04:36.399Z,20.33
2022-08-08T13:06:02.803Z,19.80
2022-08-08T13:07:05.286Z,20.17
2022-08-08T13:08:17.890Z,21.37
2022-08-08T13:10:00.607Z,21.87
2022-08-08T13:11:02.588Z,20.13
2022-08-08T13:12:27.941Z,19.32
2022-08-08T13:13:35.340Z,19.17
2022-08-08T13:14:53.505Z,20.43
2022-08-08T13:15:56.221Z,20.57
2022-08-08T13:16:59.328Z,19.71
2022-08-08T13:18:11.659Z,20.66
2022-08-08T13:19:18.109Z,21.01
2022-08-08T13:20:24.124Z,20.47
2022-08-08T13:21:48.610Z,19.90
2022-08-08T13:23:27.023Z,19.78
2022-08-08T13:24:18.809Z,19.22
2022-08-08T13:25:36.757Z,19.66
2022-08-08T13:26:38.677Z,19.35
2022-08-08T13:27:40.415Z,19.57
2022-08-08T13:28:42.836Z,21.04
2022-08-08T13:30:06.643Z,21.52
2022-08-08T13:31:12.390Z,21.01
2022-08-08T13:32:20.902Z,20.16
2022-08-08T13:33:25.839Z,19.53
2022-08-08T13:34:33.297Z,18.83
2022-08-08T13:35:43.022Z,20.37
2022-08-08T13:36:46.712Z,20.79
2022-08-08T13:38:06.772Z,22.27
2022-08-08T13:39:09.638Z,21.15
2022-08-08T13:40:18.054Z,21.98
2022-08-08T13:41:37.881Z,21.14
2022-08-08T13:42:46.575Z,20.60
2022-08-08T13:43:49.837Z,20.08
2022-08-08T13:45:00.451Z,19.84
2022-08-08T13:46:26.995Z,20.16
2022-08-08T13:47:31.552Z,19.63
2022-08-08T13:48:43.933Z,19.33
2022-08-08T13:50:34.685Z,19.62
2022-08-08T13:51:33.790Z,20.17
2022-08-08T13:52:48.925Z,20.73
2022-08-08T13:54:02.036Z,20.33
2022-08-08T13:55:06.540Z,20.27
2022-08-08T13:56:11.468Z,20.78
2022-08-08T13:57:15.360Z,20.86
2022-08-08T13:58:20.418Z,19.50
2022-08-08T13:59:32.682Z,20.16
2022-08-08T14:00:42.437Z,21.82
2022-08-08T14:01:57.817Z,20.37
2022-08-08T14:03:07.638Z,20.40
2022-08-08T14:04:25.986Z,22.19
2022-08-08T14:05:34.457Z,20.82
2022-08-08T14:06:45.439Z,19.96
2022-08-08T14:07:49.718Z,20.57
2022-08-08T14:08:56.906Z,21.20
2022-08-08T14:10:11.897Z,21.85
2022-08-08T14:11:19.638Z,20.86
2022-08-08T14:12:29.005Z,21.79
2022-08-08T14:13:33.895Z,21.50
2022-08-08T14:14:39.887Z,21.72
2022-08-08T14:15:46.407Z,21.72
2022-08-08T14:16:52.545Z,21.77
2022-08-08T14:18:37.050Z,21.35
2022-08-08T14:19:57.008Z,21.04
2022-08-08T14:21:08.109Z,20.81
2022-08-08T14:22:23.524Z,20.61
2022-08-08T14:24:06.702Z,20.63
2022-08-08T14:24:56.154Z,21.54
2022-08-08T14:26:10.519Z,21.89
2022-08-08T14:27:28.910Z,21.28
2022-08-08T14:28:30.685Z,21.16
2022-08-08T14:29:40.287Z,21.98
2022-08-08T14:30:42.677Z,21.36
2022-08-08T14:32:12.632Z,22.71
2022-08-08T14:33:25.642Z,22.43
2022-08-08T14:34:31.777Z,22.11
2022-08-08T14:35:35.698Z,23.96
2022-08-08T14:36:40.749Z,22.87
2022-08-08T14:37:59.863Z,22.39
2022-08-08T14:39:11.701Z,22.06
2022-08-08T14:40:24.209Z,22.39
2022-08-08T14:41:53.922Z,22.61
2022-08-08T14:42:54.906Z,21.58
2022-08-08T14:44:10.227Z,21.49
2022-08-08T14:45:15.289Z,20.89
2022-08-08T14:46:32.594Z,21.64
2022-08-08T14:47:52.166Z,20.73
2022-08-08T14:48:58.946Z,22.91
2022-08-08T14:50:14.043Z,22.10
2022-08-08T14:51:19.191Z,22.00
2022-08-08T14:52:21.519Z,22.76
2022-08-08T14:53:23.797Z,23.59
2022-08-08T14:54:28.864Z,22.48
2022-08-08T14:55:41.573Z,23.46
2022-08-08T14:56:44.228Z,22.20
2022-08-08T14:58:02.875Z,20.82
2022-08-08T14:59:22.286Z,22.59
2022-08-08T15:00:36.314Z,22.39
2022-08-08T15:01:41.344Z,21.95
2022-08-08T15:02:59.210Z,21.08
2022-08-08T15:04:11.507Z,22.50
2022-08-08T15:05:13.683Z,21.77
2022-08-08T15:06:16.473Z,22.15
2022-08-08T15:07:24.520Z,21.97
2022-08-08T15:08:55.123Z,22.33
2022-08-08T15:09:57.382Z,23.16
2022-08-08T15:11:00.897Z,22.07
2022-08-08T15:12:03.806Z,22.77
2022-08-08T15:13:05.676Z,21.91
2022-08-08T15:14:13.323Z,20.98
2022-08-08T15:16:01.999Z,22.60
2022-08-08T15:16:38.164Z,21.69
2022-08-08T15:17:46.032Z,21.41
2022-08-08T15:18:51.447Z,21.79
2022-08-08T15:19:53.398Z,21.64
2022-08-08T15:20:56.001Z,22.39
2022-08-08T15:21:57.966Z,21.15
2022-08-08T15:22:59.986Z,22.00
2022-08-08T15:24:03.513Z,24.06
2022-08-08T15:25:08.742Z,22.34
2022-08-08T15:26:20.559Z,22.82
2022-08-08T15:28:04.488Z,22.05
2022-08-08T15:28:43.768Z,22.32
2022-08-08T15:29:46.788Z,22.08
2022-08-08T15:30:48.823Z,22.37
2022-08-08T15:32:17.736Z,21.59
2022-08-08T15:33:35.053Z,22.86
2022-08-08T15:34:36.974Z,22.99
2022-08-08T15:35:41.510Z,22.62
2022-08-08T15:36:43.168Z,22.56
2022-08-08T15:37:45.447Z,23.10
2022-08-08T15:38:51.548Z,22.81
2022-08-08T15:39:53.925Z,22.22
2022-08-08T15:40:57.304Z,22.14
2022-08-08T15:42:00.920Z,22.03
2022-08-08T15:43:18.644Z,22.15
2022-08-08T15:44:27.751Z,22.83
2022-08-08T15:45:30.019Z,23.13
2022-08-08T15:46:35.143Z,23.50
2022-08-08T15:47:37.385Z,22.75
2022-08-08T15:48:38.987Z,23.27
2022-08-08T15:49:44.329Z,24.29
2022-08-08T15:51:06.497Z,22.81
2022-08-08T15:52:14.460Z,23.02
2022-08-08T15:53:17.779Z,23.68
2022-08-08T15:54:38.866Z,22.65
2022-08-08T15:55:42.981Z,24.02
2022-08-08T15:56:44.598Z,22.93
2022-08-08T15:57:46.253Z,23.17
2022-08-08T15:58:49.244Z,23.73